createdAt,value
2022-10-07T00:00:09.838Z,9.60
2022-10-07T00:05:11.630Z,9.60
2022-10-07T00:10:13.375Z,9.50
2022-10-07T00:15:15.366Z,9.50
2022-10-07T00:20:17.091Z,9.40
2022-10-07T00:25:19.187Z,9.40
2022-10-07T00:30:20.914Z,9.30
2022-10-07T00:35:22.680Z,9.30
2022-10-07T00:40:24.503Z,9.30
2022-10-07T00:45:26.464Z,9.20
2022-10-07T00:50:29.496Z,9.20
2022-10-07T00:55:32.238Z,9.20
2022-10-07T01:00:34.034Z,9.20
2022-10-07T01:05:35.868Z,9.20
2022-10-07T01:11:16.633Z,9.10
2022-10-07T01:16:39.344Z,9.10
2022-10-07T01:22:13.484Z,9.00
2022-10-07T01:27:26.135Z,9.00
2022-10-07T01:32:34.331Z,9.00
2022-10-07T01:37:44.205Z,8.90
2022-10-07T01:42:48.281Z,9.00
2022-10-07T01:47:50.883Z,8.80
2022-10-07T01:53:01.385Z,8.80
2022-10-07T01:58:45.651Z,8.70
2022-10-07T02:04:02.930Z,8.70
2022-10-07T02:09:20.681Z,8.60
2022-10-07T02:14:29.597Z,8.60
2022-10-07T02:19:35.649Z,8.50
2022-10-07T02:24:40.301Z,8.60
2022-10-07T02:29:46.937Z,8.60
2022-10-07T02:35:00.046Z,8.50
2022-10-07T02:40:07.091Z,8.50
2022-10-07T02:45:16.119Z,8.40
2022-10-07T02:50:23.596Z,8.40
2022-10-07T02:55:27.479Z,8.40
2022-10-07T03:00:31.617Z,8.40
2022-10-07T03:05:35.251Z,8.40
2022-10-07T03:10:38.989Z,8.40
2022-10-07T03:15:43.126Z,8.40
2022-10-07T03:20:53.394Z,8.30
2022-10-07T03:25:57.567Z,8.30
2022-10-07T03:31:08.112Z,8.30
2022-10-07T03:36:12.642Z,8.30
2022-10-07T03:41:19.021Z,8.20
2022-10-07T03:46:23.914Z,8.20
2022-10-07T03:51:26.490Z,8.20
2022-10-07T03:56:28.378Z,8.20
2022-10-07T04:01:31.664Z,8.20
2022-10-07T04:06:37.885Z,8.20
2022-10-07T04:11:43.754Z,8.20
2022-10-07T04:16:46.918Z,8.10
2022-10-07T04:21:48.772Z,8.10
2022-10-07T04:26:51.695Z,8.10
2022-10-07T04:31:55.449Z,8.00
2022-10-07T04:36:58.958Z,8.00
2022-10-07T04:42:00.893Z,8.00
2022-10-07T04:47:07.675Z,7.90
2022-10-07T04:52:12.210Z,7.90
2022-10-07T04:57:16.257Z,7.90
2022-10-07T05:02:19.587Z,7.80
2022-10-07T05:07:21.694Z,7.80
2022-10-07T05:12:26.622Z,7.80
2022-10-07T05:17:28.903Z,7.80
2022-10-07T05:22:31.561Z,7.80
2022-10-07T05:27:33.991Z,7.80
2022-10-07T05:32:36.862Z,7.80
2022-10-07T05:37:39.018Z,7.80
2022-10-07T05:42:41.244Z,7.80
2022-10-07T05:47:44.148Z,7.80
2022-10-07T05:52:48.300Z,7.80
2022-10-07T05:57:50.438Z,7.80
2022-10-07T06:02:52.445Z,7.80
2022-10-07T06:07:54.353Z,7.80
2022-10-07T06:13:08.150Z,7.90
2022-10-07T06:18:10.818Z,7.90
2022-10-07T06:23:13.124Z,7.90
2022-10-07T06:28:17.287Z,7.90
2022-10-07T06:33:19.671Z,8.00
2022-10-07T06:38:21.474Z,8.00
2022-10-07T06:43:23.584Z,8.10
2022-10-07T06:48:33.233Z,8.10
2022-10-07T06:53:35.595Z,8.20
2022-10-07T06:58:38.210Z,8.30
2022-10-07T07:03:42.365Z,8.40
2022-10-07T07:08:46.015Z,8.50
2022-10-07T07:13:47.928Z,8.70
2022-10-07T07:18:58.330Z,8.80
2022-10-07T07:24:01.932Z,8.90
2022-10-07T07:29:06.169Z,9.10
2022-10-07T07:34:16.893Z,9.30
2022-10-07T07:39:20.904Z,9.50
2022-10-07T07:44:34.760Z,9.70
2022-10-07T07:49:38.144Z,9.90
2022-10-07T07:54:42.691Z,10.10
2022-10-07T07:59:44.597Z,10.30
2022-10-07T08:04:50.047Z,10.60
2022-10-07T08:09:52.315Z,10.80
2022-10-07T08:14:54.274Z,11.00
2022-10-07T08:19:56.781Z,11.30
2022-10-07T08:25:00.205Z,11.60
2022-10-07T08:30:02.491Z,11.90
2022-10-07T08:35:04.836Z,12.20
2022-10-07T08:40:07.394Z,12.40
2022-10-07T08:45:19.542Z,12.70
2022-10-07T08:50:32.096Z,12.90
2022-10-07T08:55:39.222Z,13.10
2022-10-07T09:01:03.442Z,13.30
2022-10-07T09:06:14.086Z,13.60
2022-10-07T09:11:25.690Z,13.80
2022-10-07T09:16:40.304Z,14.00
2022-10-07T09:21:51.626Z,14.20
2022-10-07T09:26:56.783Z,14.60
2022-10-07T09:31:58.663Z,14.70
2022-10-07T09:37:20.883Z,14.90
2022-10-07T09:42:47.690Z,15.00
2022-10-07T09:47:52.698Z,15.20
2022-10-07T09:52:57.762Z,15.40
2022-10-07T09:58:01.484Z,15.40
2022-10-07T10:03:07.690Z,15.50
2022-10-07T10:08:18.523Z,15.70
2022-10-07T10:13:38.440Z,15.80
2022-10-07T10:18:42.223Z,16.00
2022-10-07T10:23:53.205Z,16.10
2022-10-07T10:29:12.776Z,16.20
2022-10-07T10:34:32.333Z,16.30
2022-10-07T10:40:03.083Z,16.40
2022-10-07T10:45:31.286Z,16.40
2022-10-07T10:50:38.379Z,16.50
2022-10-07T10:55:54.632Z,16.60
2022-10-07T11:01:24.080Z,16.60
2022-10-07T11:06:28.632Z,16.80
2022-10-07T11:11:30.738Z,16.80
2022-10-07T11:16:36.618Z,16.90
2022-10-07T11:21:46.413Z,16.90
2022-10-07T11:26:53.829Z,16.90
2022-10-07T11:32:16.771Z,16.90
2022-10-07T11:37:29.430Z,16.90
2022-10-07T11:42:39.089Z,17.00
2022-10-07T11:48:00.368Z,17.00
2022-10-07T11:53:09.969Z,17.00
2022-10-07T11:58:38.907Z,17.10
2022-10-07T12:03:40.988Z,17.20
2022-10-07T12:08:44.448Z,17.20
2022-10-07T12:13:53.182Z,17.20
2022-10-07T12:19:23.849Z,17.30
2022-10-07T12:24:27.993Z,17.30
2022-10-07T12:29:33.709Z,17.30
2022-10-07T12:34:38.641Z,17.40
2022-10-07T12:39:41.375Z,17.50
2022-10-07T12:44:52.575Z,17.80
2022-10-07T12:50:00.380Z,18.20
2022-10-07T12:55:14.211Z,18.50
2022-10-07T13:00:24.337Z,18.80
2022-10-07T13:06:11.838Z,19.00
2022-10-07T13:11:47.825Z,19.10
2022-10-07T13:16:57.335Z,19.50
2022-10-07T13:22:18.101Z,19.80
2022-10-07T13:27:30.587Z,20.30
2022-10-07T13:32:34.655Z,20.40
2022-10-07T13:37:38.002Z,20.70
2022-10-07T13:42:39.740Z,21.10
2022-10-07T13:47:44.970Z,20.70
2022-10-07T13:52:49.570Z,20.80
2022-10-07T13:57:52.410Z,21.10
2022-10-07T14:02:54.332Z,21.60
2022-10-07T14:08:11.465Z,21.40
2022-10-07T14:13:16.318Z,21.30
2022-10-07T14:18:18.121Z,21.80
2022-10-07T14:23:31.062Z,21.70
2022-10-07T14:28:39.786Z,21.10
2022-10-07T14:34:05.486Z,20.50
2022-10-07T14:39:29.574Z,20.00
2022-10-07T14:44:31.712Z,19.50
2022-10-07T14:49:33.455Z,19.10
2022-10-07T14:54:35.417Z,18.80
2022-10-07T14:59:37.862Z,18.60
2022-10-07T15:04:40.302Z,18.40
2022-10-07T15:09:43.529Z,18.20
2022-10-07T15:14:45.315Z,17.90
2022-10-07T15:19:47.176Z,17.70
2022-10-07T15:24:49.103Z,17.50
2022-10-07T15:29:54.764Z,17.40
2022-10-07T15:34:58.054Z,17.30
2022-10-07T15:39:59.839Z,17.20
2022-10-07T15:45:01.607Z,17.10
2022-10-07T15:50:03.806Z,17.00
2022-10-07T15:55:08.219Z,16.90
2022-10-07T16:00:10.820Z,16.70
2022-10-07T16:05:15.201Z,16.60
2022-10-07T16:10:16.926Z,16.50
2022-10-07T16:15:18.631Z,16.30
2022-10-07T16:20:21.233Z,16.20
2022-10-07T16:25:22.958Z,16.00
2022-10-07T16:30:42.987Z,15.80
2022-10-07T16:35:44.864Z,15.70
2022-10-07T16:40:54.426Z,15.50
2022-10-07T16:45:59.973Z,15.30
2022-10-07T16:51:01.774Z,15.10
2022-10-07T16:56:04.728Z,14.90
2022-10-07T17:01:11.830Z,14.80
2022-10-07T17:06:15.139Z,14.70
2022-10-07T17:11:29.964Z,14.50
2022-10-07T17:16:35.071Z,14.30
2022-10-07T17:21:37.853Z,14.20
2022-10-07T17:26:40.297Z,14.10
2022-10-07T17:31:43.474Z,14.00
2022-10-07T17:36:45.777Z,13.70
2022-10-07T17:41:47.809Z,13.70
2022-10-07T17:46:49.907Z,13.60
2022-10-07T17:51:51.645Z,13.50
2022-10-07T17:56:53.361Z,13.40
2022-10-07T18:01:55.082Z,13.30
2022-10-07T18:06:58.123Z,13.20
2022-10-07T18:12:25.853Z,13.10
2022-10-07T18:17:27.632Z,13.00
2022-10-07T18:22:29.331Z,13.00
2022-10-07T18:27:31.090Z,12.90
2022-10-07T18:32:32.982Z,12.80
2022-10-07T18:37:34.774Z,12.70
2022-10-07T18:42:37.726Z,12.60
2022-10-07T18:47:39.491Z,12.60
2022-10-07T18:52:41.484Z,12.50
2022-10-07T18:57:43.422Z,12.50
2022-10-07T19:02:53.838Z,12.50
2022-10-07T19:08:02.752Z,12.40
2022-10-07T19:13:24.056Z,12.30
2022-10-07T19:18:27.104Z,12.20
2022-10-07T19:23:28.982Z,12.20
2022-10-07T19:28:31.042Z,12.10
2022-10-07T19:33:34.175Z,12.10
2022-10-07T19:38:39.090Z,12.00
2022-10-07T19:43:42.136Z,11.90
2022-10-07T19:48:43.881Z,11.90
2022-10-07T19:53:47.387Z,11.80
2022-10-07T19:58:57.833Z,11.80
2022-10-07T20:04:01.834Z,11.80
2022-10-07T20:09:05.983Z,11.70
2022-10-07T20:14:07.928Z,11.70
2022-10-07T20:19:15.583Z,11.70
2022-10-07T20:24:17.777Z,11.70
2022-10-07T20:29:24.045Z,11.60
2022-10-07T20:34:27.138Z,11.50
2022-10-07T20:39:47.673Z,11.50
2022-10-07T20:44:50.256Z,11.50
2022-10-07T20:49:55.256Z,11.50
2022-10-07T20:54:57.134Z,11.40
2022-10-07T20:59:59.385Z,11.40
2022-10-07T21:05:01.162Z,11.40
2022-10-07T21:10:03.087Z,11.30
2022-10-07T21:15:05.123Z,11.30
2022-10-07T21:20:07.219Z,11.30
2022-10-07T21:25:11.784Z,11.30
2022-10-07T21:30:13.604Z,11.30
2022-10-07T21:35:15.511Z,11.30
2022-10-07T21:40:17.309Z,11.20
2022-10-07T21:45:19.061Z,11.30
2022-10-07T21:50:20.995Z,11.20
2022-10-07T21:55:23.070Z,11.30
2022-10-07T22:00:24.783Z,11.30
2022-10-07T22:05:26.539Z,11.30
2022-10-07T22:10:28.283Z,11.30
2022-10-07T22:15:30.071Z,11.40
2022-10-07T22:20:32.040Z,11.30
2022-10-07T22:25:33.969Z,11.40
2022-10-07T22:30:39.712Z,11.40
2022-10-07T22:35:41.600Z,11.30
2022-10-07T22:40:43.691Z,11.20
2022-10-07T22:45:55.975Z,11.20
2022-10-07T22:51:06.429Z,11.20
2022-10-07T22:56:13.337Z,11.20
2022-10-07T23:01:16.431Z,11.10
2022-10-07T23:06:19.718Z,11.10
2022-10-07T23:11:23.732Z,11.10
2022-10-07T23:16:29.646Z,11.10
2022-10-07T23:21:34.567Z,11.10
2022-10-07T23:26:37.178Z,11.00
2022-10-07T23:31:39.253Z,10.90
2022-10-07T23:36:41.266Z,10.90
2022-10-07T23:41:43.097Z,10.80
2022-10-07T23:46:45.062Z,10.80
2022-10-07T23:51:47.398Z,10.70
2022-10-07T23:56:49.316Z,10.70
